createdAt,value
2019-05-11T00:00:39.928Z,9.45
2019-05-11T00:03:08.385Z,7.22
2019-05-11T00:05:36.965Z,10.68
2019-05-11T00:08:05.421Z,8.70
2019-05-11T00:10:33.938Z,11.22
2019-05-11T00:13:02.504Z,8.95
2019-05-11T00:15:30.995Z,12.55
2019-05-11T00:17:59.533Z,15.48
2019-05-11T00:20:28.125Z,9.15
2019-05-11T00:22:56.646Z,8.23
2019-05-11T00:25:25.122Z,8.35
2019-05-11T00:27:53.575Z,9.80
2019-05-11T00:30:22.082Z,11.60
2019-05-11T00:32:50.764Z,8.93
2019-05-11T00:35:19.201Z,9.18
2019-05-11T00:37:47.646Z,8.23
2019-05-11T00:40:16.530Z,8.85
2019-05-11T00:42:44.972Z,9.28
2019-05-11T00:45:13.834Z,12.30
2019-05-11T00:47:42.315Z,9.43
2019-05-11T00:50:11.703Z,9.45
2019-05-11T00:52:40.182Z,9.23
2019-05-11T00:55:08.879Z,8.80
2019-05-11T00:57:37.561Z,11.38
2019-05-11T01:00:09.193Z,9.55
2019-05-11T01:02:37.637Z,12.25
2019-05-11T01:05:07.953Z,9.40
2019-05-11T01:07:36.627Z,11.85
2019-05-11T01:10:21.875Z,9.88
2019-05-11T01:12:37.254Z,9.33
2019-05-11T01:15:06.682Z,9.90
2019-05-11T01:17:35.215Z,9.80
2019-05-11T01:20:05.200Z,11.28
2019-05-11T01:22:33.716Z,12.73
2019-05-11T01:25:02.159Z,11.97
2019-05-11T01:27:30.616Z,10.35
2019-05-11T01:29:59.094Z,10.50
2019-05-11T01:32:27.590Z,10.85
2019-05-11T01:34:56.043Z,9.65
2019-05-11T01:37:24.551Z,10.15
2019-05-11T01:39:52.999Z,10.95
2019-05-11T01:42:21.455Z,13.18
2019-05-11T01:44:50.042Z,11.28
2019-05-11T01:47:18.563Z,9.93
2019-05-11T01:49:47.019Z,11.80
2019-05-11T01:52:15.531Z,11.68
2019-05-11T01:54:44.042Z,12.20
2019-05-11T01:57:12.494Z,14.03
2019-05-11T01:59:40.996Z,13.03
2019-05-11T02:02:09.487Z,12.23
2019-05-11T02:04:37.956Z,12.98
2019-05-11T02:07:06.595Z,11.88
2019-05-11T02:09:35.179Z,11.30
2019-05-11T02:12:03.623Z,13.53
2019-05-11T02:14:32.125Z,12.07
2019-05-11T02:17:00.966Z,15.55
2019-05-11T02:19:29.414Z,12.50
2019-05-11T02:21:57.863Z,12.20
2019-05-11T02:24:26.359Z,14.03
2019-05-11T02:26:54.807Z,13.70
2019-05-11T02:29:23.318Z,12.07
2019-05-11T02:31:51.773Z,11.85
2019-05-11T02:34:20.291Z,11.95
2019-05-11T02:36:48.819Z,11.43
2019-05-11T02:39:17.338Z,10.55
2019-05-11T02:41:45.782Z,13.05
2019-05-11T02:44:14.300Z,11.13
2019-05-11T02:46:42.742Z,10.82
2019-05-11T02:49:11.186Z,13.87
2019-05-11T02:51:40.274Z,11.80
2019-05-11T02:54:10.269Z,15.97
2019-05-11T02:56:38.745Z,13.50
2019-05-11T02:59:07.294Z,12.10
2019-05-11T03:01:35.818Z,16.07
2019-05-11T03:04:04.329Z,13.57
2019-05-11T03:06:32.773Z,12.40
2019-05-11T03:09:01.306Z,12.50
2019-05-11T03:11:29.833Z,13.63
2019-05-11T03:13:58.347Z,12.73
2019-05-11T03:16:26.829Z,14.83
2019-05-11T03:18:55.281Z,12.63
2019-05-11T03:21:23.866Z,14.90
2019-05-11T03:23:52.324Z,14.17
2019-05-11T03:26:20.771Z,13.23
2019-05-11T03:28:49.333Z,13.53
2019-05-11T03:31:17.912Z,13.15
2019-05-11T03:33:46.357Z,13.87
2019-05-11T03:36:14.891Z,11.33
2019-05-11T03:38:43.501Z,14.30
2019-05-11T03:41:11.993Z,13.72
2019-05-11T03:43:40.515Z,13.60
2019-05-11T03:46:09.033Z,12.30
2019-05-11T03:48:37.570Z,12.90
2019-05-11T03:51:06.086Z,12.18
2019-05-11T03:53:34.569Z,12.93
2019-05-11T03:56:03.037Z,13.43
2019-05-11T03:58:31.746Z,13.20
2019-05-11T04:01:00.359Z,11.90
2019-05-11T04:03:28.869Z,14.57
2019-05-11T04:05:57.323Z,14.93
2019-05-11T04:08:25.878Z,13.43
2019-05-11T04:10:54.344Z,15.15
2019-05-11T04:13:23.052Z,13.88
2019-05-11T04:15:51.495Z,13.90
2019-05-11T04:18:20.026Z,13.35
2019-05-11T04:20:48.473Z,12.45
2019-05-11T04:23:16.932Z,12.15
2019-05-11T04:25:45.442Z,12.00
2019-05-11T04:28:14.029Z,14.15
2019-05-11T04:30:42.483Z,13.70
2019-05-11T04:33:11.019Z,13.28
2019-05-11T04:35:39.541Z,17.00
2019-05-11T04:38:08.067Z,16.62
2019-05-11T04:40:36.528Z,15.63
2019-05-11T04:43:05.018Z,16.02
2019-05-11T04:45:33.469Z,16.67
2019-05-11T04:48:01.997Z,17.50
2019-05-11T04:50:30.514Z,16.30
2019-05-11T04:52:58.963Z,12.20
2019-05-11T04:55:27.462Z,13.93
2019-05-11T04:57:55.919Z,12.45
2019-05-11T05:00:24.688Z,10.98
2019-05-11T05:02:53.219Z,11.57
2019-05-11T05:05:21.879Z,11.30
2019-05-11T05:07:50.712Z,10.28
2019-05-11T05:10:21.896Z,11.78
2019-05-11T05:12:51.365Z,11.68
2019-05-11T05:15:19.798Z,10.95
2019-05-11T05:17:48.328Z,11.55
2019-05-11T05:20:17.136Z,10.18
2019-05-11T05:22:45.618Z,10.40
2019-05-11T05:25:14.175Z,9.38
2019-05-11T05:27:42.690Z,10.58
2019-05-11T05:30:11.537Z,12.23
2019-05-11T05:32:40.169Z,10.53
2019-05-11T05:35:08.755Z,10.93
2019-05-11T05:37:37.249Z,11.25
2019-05-11T05:40:06.533Z,11.08
2019-05-11T05:42:35.053Z,10.63
2019-05-11T05:45:05.567Z,10.72
2019-05-11T05:50:01.747Z,9.75
2019-05-11T05:52:30.396Z,9.55
2019-05-11T05:54:58.841Z,9.60
2019-05-11T05:57:27.283Z,8.53
2019-05-11T05:59:55.761Z,10.18
2019-05-11T06:02:24.337Z,7.40
2019-05-11T06:04:52.781Z,7.08
2019-05-11T06:07:21.343Z,6.90
2019-05-11T06:09:49.828Z,9.40
2019-05-11T06:12:18.304Z,7.45
2019-05-11T06:14:46.850Z,11.60
2019-05-11T06:17:15.311Z,10.05
2019-05-11T06:19:43.844Z,7.15
2019-05-11T06:22:12.290Z,7.28
2019-05-11T06:24:40.752Z,6.50
2019-05-11T06:27:09.338Z,7.45
2019-05-11T06:29:37.791Z,11.78
2019-05-11T06:32:06.235Z,6.58
2019-05-11T06:34:34.713Z,8.05
2019-05-11T06:37:03.495Z,8.65
2019-05-11T06:39:31.949Z,7.83
2019-05-11T06:42:00.472Z,9.50
2019-05-11T06:44:28.954Z,6.05
2019-05-11T06:46:57.471Z,6.37
2019-05-11T06:49:25.921Z,7.37
2019-05-11T06:51:54.495Z,10.80
2019-05-11T06:54:22.951Z,5.40
2019-05-11T06:56:51.419Z,10.20
2019-05-11T06:59:19.974Z,8.90
2019-05-11T07:01:48.417Z,7.75
2019-05-11T07:04:16.926Z,5.55
2019-05-11T07:06:45.375Z,6.45
2019-05-11T07:09:13.879Z,4.95
2019-05-11T07:11:42.609Z,9.73
2019-05-11T07:14:20.384Z,7.97
2019-05-11T07:16:41.298Z,8.65
2019-05-11T07:19:09.798Z,8.30
2019-05-11T07:21:38.313Z,8.65
2019-05-11T07:24:06.775Z,10.00
2019-05-11T07:26:35.227Z,5.15
2019-05-11T07:29:03.844Z,8.70
2019-05-11T07:31:32.302Z,6.85
2019-05-11T07:34:00.754Z,8.28
2019-05-11T07:36:29.252Z,7.28
2019-05-11T07:38:58.153Z,7.00
2019-05-11T07:41:28.145Z,6.03
2019-05-11T07:43:58.982Z,11.18
2019-05-11T07:46:28.792Z,11.83
2019-05-11T07:48:58.482Z,6.05
2019-05-11T07:51:28.795Z,10.98
2019-05-11T07:53:57.918Z,6.28
2019-05-11T07:56:28.461Z,9.45
2019-05-11T07:58:58.017Z,11.95
2019-05-11T08:01:28.213Z,10.72
2019-05-11T08:03:58.626Z,8.43
2019-05-11T08:06:28.556Z,10.03
2019-05-11T08:08:58.882Z,4.95
2019-05-11T08:11:30.740Z,5.37
2019-05-11T08:16:28.495Z,5.00
2019-05-11T08:18:58.839Z,5.33
2019-05-11T08:21:28.339Z,7.92
2019-05-11T08:23:58.721Z,8.90
2019-05-11T08:28:57.918Z,6.20
2019-05-11T08:32:03.306Z,10.60
2019-05-11T08:34:31.800Z,10.05
2019-05-11T08:37:01.240Z,6.45
2019-05-11T08:39:29.676Z,9.88
2019-05-11T08:41:58.980Z,7.47
2019-05-11T08:44:28.757Z,10.45
2019-05-11T08:46:58.204Z,7.03
2019-05-11T08:49:28.760Z,7.03
2019-05-11T08:51:57.985Z,9.03
2019-05-11T08:54:28.660Z,6.33
2019-05-11T08:56:58.786Z,7.20
2019-05-11T08:59:27.896Z,7.42
2019-05-11T09:01:58.794Z,4.80
2019-05-11T09:04:28.826Z,4.08
2019-05-11T09:06:58.671Z,9.65
2019-05-11T09:09:28.721Z,9.18
2019-05-11T09:11:58.825Z,4.75
2019-05-11T09:14:28.380Z,5.87
2019-05-11T09:16:57.894Z,7.33
2019-05-11T09:19:28.445Z,6.40
2019-05-11T09:21:58.845Z,8.48
2019-05-11T09:26:58.530Z,8.73
2019-05-11T09:31:58.321Z,5.97
2019-05-11T09:36:58.697Z,6.05
2019-05-11T09:41:58.467Z,4.50
2019-05-11T09:44:28.895Z,6.60
2019-05-11T09:46:59.987Z,8.23
2019-05-11T09:49:42.966Z,6.12
2019-05-11T09:51:58.955Z,5.92
2019-05-11T09:54:28.986Z,7.12
2019-05-11T09:56:57.959Z,6.17
2019-05-11T09:59:28.261Z,7.58
2019-05-11T10:01:58.776Z,4.47
2019-05-11T10:04:28.900Z,5.67
2019-05-11T10:06:58.568Z,7.72
2019-05-11T10:09:27.975Z,5.33
2019-05-11T10:11:58.425Z,6.87
2019-05-11T10:14:28.899Z,6.20
2019-05-11T10:16:58.421Z,4.33
2019-05-11T10:19:28.436Z,7.47
2019-05-11T10:21:58.012Z,6.72
2019-05-11T10:24:28.347Z,5.07
2019-05-11T10:29:28.730Z,4.12
2019-05-11T10:31:58.695Z,8.03
2019-05-11T10:34:28.476Z,6.55
2019-05-11T10:36:58.020Z,5.95
2019-05-11T10:39:27.964Z,5.17
2019-05-11T10:41:58.431Z,7.78
2019-05-11T10:46:58.715Z,8.00
2019-05-11T10:49:28.942Z,5.60
2019-05-11T10:51:58.719Z,5.40
2019-05-11T10:56:57.903Z,7.72
2019-05-11T10:59:28.245Z,7.85
2019-05-11T11:04:24.730Z,5.20
2019-05-11T11:06:53.179Z,6.33
2019-05-11T11:09:21.630Z,5.50
2019-05-11T11:11:50.140Z,7.30
2019-05-11T11:14:18.670Z,5.15
2019-05-11T11:16:47.921Z,6.72
2019-05-11T11:19:18.355Z,9.48
2019-05-11T11:21:48.708Z,7.53
2019-05-11T11:24:18.011Z,8.18
2019-05-11T11:26:48.570Z,9.00
2019-05-11T11:29:17.923Z,3.83
2019-05-11T11:31:48.176Z,5.55
2019-05-11T11:36:44.597Z,6.00
2019-05-11T11:39:13.053Z,6.80
2019-05-11T11:41:41.501Z,6.58
2019-05-11T11:44:10.000Z,5.05
2019-05-11T11:46:51.252Z,7.55
2019-05-11T11:49:08.613Z,5.28
2019-05-11T11:51:37.828Z,6.33
2019-05-11T11:54:08.520Z,6.53
2019-05-11T11:56:37.955Z,6.12
2019-05-11T11:59:08.516Z,5.90
2019-05-11T12:01:38.429Z,6.17
2019-05-11T12:04:08.265Z,7.72
2019-05-11T12:06:38.552Z,5.10
2019-05-11T12:11:38.064Z,5.17
2019-05-11T12:14:08.744Z,5.87
2019-05-11T12:16:38.782Z,6.35
2019-05-11T12:19:08.462Z,5.62
2019-05-11T12:21:37.992Z,7.97
2019-05-11T12:24:08.200Z,5.95
2019-05-11T12:29:04.646Z,8.13
2019-05-11T12:31:33.156Z,6.00
2019-05-11T12:34:01.606Z,6.85
2019-05-11T12:36:30.054Z,5.55
2019-05-11T12:38:58.541Z,7.00
2019-05-11T12:41:28.027Z,8.20
2019-05-11T12:43:57.759Z,6.20
2019-05-11T12:46:27.631Z,8.58
2019-05-11T12:48:57.283Z,7.22
2019-05-11T12:51:27.664Z,5.28
2019-05-11T12:53:57.640Z,10.50
2019-05-11T12:56:27.712Z,7.25
2019-05-11T12:58:58.208Z,5.70
2019-05-11T13:01:28.904Z,8.78
2019-05-11T13:03:58.078Z,8.15
2019-05-11T13:06:27.944Z,8.75
2019-05-11T13:08:58.603Z,6.50
2019-05-11T13:11:28.545Z,5.75
2019-05-11T13:13:58.573Z,5.75
2019-05-11T13:16:28.752Z,5.37
2019-05-11T13:18:57.747Z,5.42
2019-05-11T13:21:28.535Z,5.65
2019-05-11T13:23:57.673Z,8.75
2019-05-11T13:26:28.283Z,10.20
2019-05-11T13:28:58.434Z,10.38
2019-05-11T13:31:27.796Z,9.23
2019-05-11T13:33:58.347Z,5.97
2019-05-11T13:36:28.656Z,12.10
2019-05-11T13:38:58.793Z,8.60
2019-05-11T13:41:28.032Z,8.93
2019-05-11T13:43:57.668Z,10.18
2019-05-11T13:46:28.178Z,7.40
2019-05-11T13:48:57.977Z,9.48
2019-05-11T13:51:28.402Z,8.08
2019-05-11T13:53:58.472Z,9.08
2019-05-11T13:56:28.482Z,11.57
2019-05-11T14:01:27.838Z,6.17
2019-05-11T14:03:58.496Z,8.15
2019-05-11T14:06:28.769Z,7.55
2019-05-11T14:08:58.673Z,9.33
2019-05-11T14:11:28.604Z,8.70
2019-05-11T14:13:58.511Z,7.30
2019-05-11T14:16:27.735Z,7.90
2019-05-11T14:18:57.862Z,8.60
2019-05-11T14:21:27.965Z,7.47
2019-05-11T14:23:58.652Z,7.70
2019-05-11T14:26:28.025Z,13.75
2019-05-11T14:28:58.262Z,11.63
2019-05-11T14:31:27.939Z,9.48
2019-05-11T14:33:57.895Z,9.93
2019-05-11T14:36:28.174Z,9.70
2019-05-11T14:41:28.416Z,9.67
2019-05-11T14:43:57.986Z,6.95
2019-05-11T14:46:27.884Z,6.87
2019-05-11T14:48:58.372Z,5.53
2019-05-11T14:51:28.205Z,9.45
2019-05-11T14:53:59.497Z,7.47
2019-05-11T14:56:27.946Z,7.87
2019-05-11T14:58:57.992Z,11.10
2019-05-11T15:01:28.693Z,9.28
2019-05-11T15:03:58.895Z,10.28
2019-05-11T15:06:27.907Z,9.23
2019-05-11T15:08:58.210Z,8.03
2019-05-11T15:11:28.022Z,8.28
2019-05-11T15:13:57.568Z,10.08
2019-05-11T15:16:27.837Z,8.57
2019-05-11T15:18:58.463Z,8.58
2019-05-11T15:21:28.034Z,12.65
2019-05-11T15:23:58.049Z,7.45
2019-05-11T15:26:27.828Z,9.43
2019-05-11T15:28:58.454Z,6.25
2019-05-11T15:31:27.837Z,8.60
2019-05-11T15:33:57.716Z,7.37
2019-05-11T15:36:28.414Z,7.65
2019-05-11T15:38:58.230Z,10.05
2019-05-11T15:43:57.902Z,7.87
2019-05-11T15:46:28.250Z,11.43
2019-05-11T15:49:03.148Z,8.70
2019-05-11T15:51:29.092Z,13.00
2019-05-11T15:53:58.694Z,11.12
2019-05-11T15:56:27.992Z,9.18
2019-05-11T15:58:57.853Z,11.55
2019-05-11T16:01:28.750Z,9.88
2019-05-11T16:03:58.301Z,7.55
2019-05-11T16:06:28.474Z,12.55
2019-05-11T16:08:58.611Z,8.85
2019-05-11T16:11:28.385Z,12.47
2019-05-11T16:13:58.621Z,7.05
2019-05-11T16:16:28.105Z,5.20
2019-05-11T16:19:10.185Z,6.37
2019-05-11T16:23:58.482Z,8.55
2019-05-11T16:26:28.148Z,12.63
2019-05-11T16:28:58.181Z,13.55
2019-05-11T16:31:28.470Z,16.48
2019-05-11T16:36:28.433Z,12.33
2019-05-11T16:38:56.769Z,13.22
2019-05-11T16:41:25.293Z,11.03
2019-05-11T16:43:53.734Z,9.65
2019-05-11T16:46:22.194Z,10.80
2019-05-11T16:48:50.899Z,11.50
2019-05-11T16:51:19.343Z,6.72
2019-05-11T16:53:48.128Z,10.40
2019-05-11T16:56:16.766Z,13.83
2019-05-11T16:58:45.231Z,10.72
2019-05-11T17:01:13.766Z,9.73
2019-05-11T17:03:42.211Z,7.22
2019-05-11T17:06:10.658Z,9.08
2019-05-11T17:08:39.165Z,8.63
2019-05-11T17:11:08.200Z,10.32
2019-05-11T17:13:37.971Z,8.98
2019-05-11T17:16:08.675Z,10.98
2019-05-11T17:18:36.928Z,10.90
2019-05-11T17:21:07.635Z,8.30
2019-05-11T17:23:38.058Z,9.18
2019-05-11T17:26:08.510Z,10.00
2019-05-11T17:28:37.870Z,7.35
2019-05-11T17:31:08.009Z,9.30
2019-05-11T17:33:38.435Z,8.33
2019-05-11T17:36:08.409Z,9.73
2019-05-11T17:38:39.009Z,12.85
2019-05-11T17:41:08.519Z,9.45
2019-05-11T17:43:38.645Z,9.60
2019-05-11T17:46:08.126Z,9.70
2019-05-11T17:48:38.878Z,10.53
2019-05-11T17:51:20.906Z,7.53
2019-05-11T17:53:37.807Z,9.65
2019-05-11T17:56:06.491Z,9.13
2019-05-11T17:58:37.671Z,8.65
2019-05-11T18:03:33.078Z,190.95
2019-05-11T18:06:01.575Z,151.35
2019-05-11T18:08:30.987Z,100.70
2019-05-11T18:10:59.702Z,76.87
2019-05-11T18:13:28.580Z,63.90
2019-05-11T18:15:57.905Z,13.78
2019-05-11T18:18:28.877Z,11.28
2019-05-11T18:20:57.868Z,6.85
2019-05-11T18:23:28.295Z,8.48
2019-05-11T18:25:56.868Z,14.13
2019-05-11T18:28:25.360Z,16.85
2019-05-11T18:30:53.827Z,17.92
2019-05-11T18:33:22.376Z,18.30
2019-05-11T18:35:50.847Z,17.12
2019-05-11T18:38:19.422Z,10.32
2019-05-11T18:40:48.644Z,14.75
2019-05-11T18:43:18.816Z,19.07
2019-05-11T18:48:18.543Z,14.73
2019-05-11T18:53:18.638Z,12.82
2019-05-11T18:55:48.670Z,11.85
2019-05-11T18:58:18.442Z,9.70
2019-05-11T19:00:48.791Z,11.60
2019-05-11T19:03:19.220Z,10.95
2019-05-11T19:05:48.164Z,13.98
2019-05-11T19:08:18.948Z,11.90
2019-05-11T19:10:48.777Z,11.35
2019-05-11T19:13:17.227Z,9.88
2019-05-11T19:15:48.449Z,17.35
2019-05-11T19:20:46.091Z,20.15
2019-05-11T19:23:13.941Z,14.33
2019-05-11T19:25:42.403Z,13.90
2019-05-11T19:28:10.901Z,10.50
2019-05-11T19:30:39.416Z,10.65
2019-05-11T19:33:11.055Z,18.00
2019-05-11T19:35:38.371Z,11.22
2019-05-11T19:38:08.654Z,13.25
2019-05-11T19:40:38.455Z,10.60
2019-05-11T19:43:08.234Z,11.00
2019-05-11T19:45:38.370Z,12.63
2019-05-11T19:48:08.429Z,13.20
2019-05-11T19:50:40.301Z,10.03
2019-05-11T19:53:08.484Z,13.00
2019-05-11T19:55:37.316Z,8.43
2019-05-11T19:58:05.881Z,13.05
2019-05-11T20:00:34.401Z,13.28
2019-05-11T20:03:03.064Z,30.52
2019-05-11T20:05:31.574Z,18.55
2019-05-11T20:08:00.103Z,17.17
2019-05-11T20:10:28.568Z,8.53
2019-05-11T20:12:58.786Z,19.40
2019-05-11T20:15:27.325Z,12.10
2019-05-11T20:17:55.775Z,15.65
2019-05-11T20:20:24.230Z,11.12
2019-05-11T20:22:52.785Z,10.05
2019-05-11T20:25:21.228Z,10.58
2019-05-11T20:27:49.686Z,13.00
2019-05-11T20:30:19.383Z,16.27
2019-05-11T20:32:48.920Z,15.53
2019-05-11T20:35:17.723Z,8.78
2019-05-11T20:37:46.278Z,9.43
2019-05-11T20:40:15.474Z,8.88
2019-05-11T20:42:43.993Z,11.38
2019-05-11T20:45:12.681Z,8.05
2019-05-11T20:47:41.423Z,7.28
2019-05-11T20:50:10.200Z,4.72
2019-05-11T20:52:40.035Z,11.73
2019-05-11T20:55:09.163Z,5.80
2019-05-11T20:57:39.355Z,10.35
2019-05-11T21:00:14.121Z,6.55
2019-05-11T21:02:42.573Z,11.80
2019-05-11T21:05:11.022Z,8.00
2019-05-11T21:07:39.610Z,9.78
2019-05-11T21:10:09.039Z,5.40
2019-05-11T21:12:38.646Z,11.33
2019-05-11T21:15:09.302Z,10.75
2019-05-11T21:17:37.825Z,10.03
2019-05-11T21:20:10.029Z,9.20
2019-05-11T21:22:40.671Z,14.45
2019-05-11T21:25:10.995Z,13.48
2019-05-11T21:27:39.448Z,15.00
2019-05-11T21:30:09.742Z,11.85
2019-05-11T21:35:08.825Z,13.85
2019-05-11T21:37:38.714Z,11.80
2019-05-11T21:40:08.927Z,14.15
2019-05-11T21:42:38.890Z,15.83
2019-05-11T21:45:09.438Z,16.77
2019-05-11T21:47:38.982Z,16.75
2019-05-11T21:50:09.050Z,16.73
2019-05-11T21:52:38.538Z,10.88
2019-05-11T21:55:09.369Z,11.83
2019-05-11T21:57:38.544Z,8.40
2019-05-11T22:00:10.290Z,6.60
2019-05-11T22:02:39.052Z,10.82
2019-05-11T22:05:09.337Z,14.38
2019-05-11T22:07:38.833Z,11.43
2019-05-11T22:10:10.167Z,7.33
2019-05-11T22:12:39.366Z,10.65
2019-05-11T22:15:11.621Z,14.28
2019-05-11T22:17:40.145Z,15.28
2019-05-11T22:20:09.466Z,9.48
2019-05-11T22:22:38.865Z,12.75
2019-05-11T22:25:09.017Z,7.58
2019-05-11T22:27:38.890Z,10.15
2019-05-11T22:30:11.449Z,9.78
2019-05-11T22:32:39.899Z,8.63
2019-05-11T22:35:09.465Z,8.10
2019-05-11T22:37:39.074Z,5.47
2019-05-11T22:40:08.948Z,7.10
2019-05-11T22:42:37.800Z,3.95
2019-05-11T22:45:08.766Z,6.40
2019-05-11T22:47:39.142Z,7.12
2019-05-11T22:52:40.414Z,8.40
2019-05-11T22:55:11.917Z,12.10
2019-05-11T22:57:39.202Z,11.28
2019-05-11T23:00:09.587Z,8.25
2019-05-11T23:02:38.371Z,7.47
2019-05-11T23:05:08.419Z,6.75
2019-05-11T23:07:41.187Z,11.43
2019-05-11T23:10:09.505Z,9.28
2019-05-11T23:12:38.547Z,8.38
2019-05-11T23:15:09.968Z,10.25
2019-05-11T23:17:38.834Z,8.90
2019-05-11T23:20:07.935Z,13.98
2019-05-11T23:22:51.209Z,8.63
2019-05-11T23:25:08.490Z,8.98
2019-05-11T23:27:39.206Z,11.55
2019-05-11T23:30:08.724Z,9.03
2019-05-11T23:32:37.807Z,7.62
2019-05-11T23:35:08.414Z,7.33
2019-05-11T23:37:38.712Z,5.53
2019-05-11T23:40:10.065Z,6.72
2019-05-11T23:42:38.509Z,7.33
2019-05-11T23:45:08.866Z,6.83
2019-05-11T23:50:08.145Z,8.85
2019-05-11T23:52:37.977Z,8.70
2019-05-11T23:55:08.381Z,5.90
2019-05-11T23:57:37.963Z,8.30
